sensor_id;sensor_type;location;lat;lon;timestamp;pressure;altitude;pressure_sealevel;temperature;humidity
69624;BME280;56843;52.020;5.670;2023-05-16T00:00:13;101709.66;;;13.71;55.22
69624;BME280;56843;52.020;5.670;2023-05-16T00:01:44;101712.66;;;13.69;55.19
69624;BME280;56843;52.020;5.670;2023-05-16T00:03:14;101703.34;;;13.67;54.91
69624;BME280;56843;52.020;5.670;2023-05-16T00:04:45;101710.59;;;13.66;55.28
69624;BME280;56843;52.020;5.670;2023-05-16T00:06:15;101703.69;;;13.65;54.99
69624;BME280;56843;52.020;5.670;2023-05-16T00:07:46;101705.41;;;13.61;55.17
69624;BME280;56843;52.020;5.670;2023-05-16T00:09:16;101718.81;;;13.61;55.45
69624;BME280;56843;52.020;5.670;2023-05-16T00:10:47;101704.94;;;13.59;55.20
69624;BME280;56843;52.020;5.670;2023-05-16T00:12:18;101713.31;;;13.58;55.18
69624;BME280;56843;52.020;5.670;2023-05-16T00:13:48;101716.00;;;13.58;55.41
69624;BME280;56843;52.020;5.670;2023-05-16T00:15:20;101708.56;;;13.55;55.48
69624;BME280;56843;52.020;5.670;2023-05-16T00:16:53;101707.81;;;13.54;55.40
69624;BME280;56843;52.020;5.670;2023-05-16T00:18:23;101715.69;;;13.51;55.59
69624;BME280;56843;52.020;5.670;2023-05-16T00:19:55;101707.50;;;13.47;55.30
69624;BME280;56843;52.020;5.670;2023-05-16T00:21:27;101705.47;;;13.44;55.13
69624;BME280;56843;52.020;5.670;2023-05-16T00:22:58;101707.53;;;13.39;55.53
69624;BME280;56843;52.020;5.670;2023-05-16T00:24:30;101708.97;;;13.36;55.19
69624;BME280;56843;52.020;5.670;2023-05-16T00:26:01;101708.31;;;13.31;55.07
69624;BME280;56843;52.020;5.670;2023-05-16T00:27:33;101708.19;;;13.27;55.37
69624;BME280;56843;52.020;5.670;2023-05-16T00:29:04;101704.56;;;13.23;55.05
69624;BME280;56843;52.020;5.670;2023-05-16T00:30:34;101700.16;;;13.18;55.43
69624;BME280;56843;52.020;5.670;2023-05-16T00:32:05;101705.03;;;13.16;55.13
69624;BME280;56843;52.020;5.670;2023-05-16T00:33:37;101711.81;;;13.14;55.30
69624;BME280;56843;52.020;5.670;2023-05-16T00:35:08;101707.41;;;13.09;55.62
69624;BME280;56843;52.020;5.670;2023-05-16T00:36:40;101707.25;;;13.06;55.23
69624;BME280;56843;52.020;5.670;2023-05-16T00:38:12;101701.72;;;13.02;55.38
69624;BME280;56843;52.020;5.670;2023-05-16T00:39:42;101705.03;;;12.99;55.47
69624;BME280;56843;52.020;5.670;2023-05-16T00:41:13;101709.94;;;12.97;55.46
69624;BME280;56843;52.020;5.670;2023-05-16T00:42:43;101720.50;;;12.94;55.28
69624;BME280;56843;52.020;5.670;2023-05-16T00:44:14;101715.78;;;12.91;55.47
69624;BME280;56843;52.020;5.670;2023-05-16T00:45:46;101716.09;;;12.89;55.47
69624;BME280;56843;52.020;5.670;2023-05-16T00:47:17;101713.25;;;12.86;55.43
69624;BME280;56843;52.020;5.670;2023-05-16T00:48:47;101710.88;;;12.84;55.64
69624;BME280;56843;52.020;5.670;2023-05-16T00:50:18;101712.00;;;12.83;55.43
69624;BME280;56843;52.020;5.670;2023-05-16T00:51:48;101725.22;;;12.80;55.53
69624;BME280;56843;52.020;5.670;2023-05-16T00:53:22;101711.31;;;12.78;55.69
69624;BME280;56843;52.020;5.670;2023-05-16T00:54:53;101722.69;;;12.75;55.44
69624;BME280;56843;52.020;5.670;2023-05-16T00:56:24;101722.19;;;12.73;55.62
69624;BME280;56843;52.020;5.670;2023-05-16T00:57:56;101719.03;;;12.71;55.64
69624;BME280;56843;52.020;5.670;2023-05-16T00:59:27;101718.56;;;12.69;55.65
69624;BME280;56843;52.020;5.670;2023-05-16T01:03:33;101714.13;;;12.55;56.14
69624;BME280;56843;52.020;5.670;2023-05-16T01:05:04;101715.25;;;12.54;55.89
69624;BME280;56843;52.020;5.670;2023-05-16T01:06:35;101722.03;;;12.52;55.78
69624;BME280;56843;52.020;5.670;2023-05-16T01:08:05;101721.56;;;12.50;56.06
69624;BME280;56843;52.020;5.670;2023-05-16T01:09:36;101717.59;;;12.47;55.99
69624;BME280;56843;52.020;5.670;2023-05-16T01:11:30;101725.16;;;12.45;56.48
69624;BME280;56843;52.020;5.670;2023-05-16T01:13:18;101717.75;;;12.42;56.54
69624;BME280;56843;52.020;5.670;2023-05-16T01:17:15;101716.94;;;12.33;56.55
69624;BME280;56843;52.020;5.670;2023-05-16T01:18:51;101724.00;;;12.29;56.91
69624;BME280;56843;52.020;5.670;2023-05-16T01:20:28;101719.75;;;12.28;56.90
69624;BME280;56843;52.020;5.670;2023-05-16T01:22:15;101716.59;;;12.26;56.85
69624;BME280;56843;52.020;5.670;2023-05-16T01:27:15;101719.25;;;12.18;57.07
69624;BME280;56843;52.020;5.670;2023-05-16T01:28:46;101728.69;;;12.15;57.20
69624;BME280;56843;52.020;5.670;2023-05-16T01:30:18;101724.44;;;12.14;57.19
69624;BME280;56843;52.020;5.670;2023-05-16T01:31:49;101725.84;;;12.12;57.46
69624;BME280;56843;52.020;5.670;2023-05-16T01:33:19;101725.69;;;12.08;57.60
69624;BME280;56843;52.020;5.670;2023-05-16T01:34:50;101728.38;;;12.08;57.71
69624;BME280;56843;52.020;5.670;2023-05-16T01:38:17;101734.34;;;12.05;57.80
69624;BME280;56843;52.020;5.670;2023-05-16T01:39:55;101724.88;;;11.99;58.14
69624;BME280;56843;52.020;5.670;2023-05-16T01:41:42;101728.31;;;12.00;57.82
69624;BME280;56843;52.020;5.670;2023-05-16T01:43:20;101728.16;;;11.96;57.86
69624;BME280;56843;52.020;5.670;2023-05-16T01:46:30;101718.84;;;11.94;57.96
69624;BME280;56843;52.020;5.670;2023-05-16T01:48:07;101734.09;;;11.93;58.00
69624;BME280;56843;52.020;5.670;2023-05-16T01:49:48;101739.78;;;11.92;58.22
69624;BME280;56843;52.020;5.670;2023-05-16T01:51:21;101732.06;;;11.90;58.49
69624;BME280;56843;52.020;5.670;2023-05-16T01:53:00;101733.63;;;11.91;57.98
69624;BME280;56843;52.020;5.670;2023-05-16T01:54:33;101729.06;;;11.92;58.19
69624;BME280;56843;52.020;5.670;2023-05-16T01:56:10;101728.28;;;11.91;58.12
69624;BME280;56843;52.020;5.670;2023-05-16T01:57:44;101729.38;;;11.90;58.20
69624;BME280;56843;52.020;5.670;2023-05-16T01:59:16;101733.63;;;11.91;58.13
69624;BME280;56843;52.020;5.670;2023-05-16T02:00:47;101729.88;;;11.92;58.05
69624;BME280;56843;52.020;5.670;2023-05-16T02:02:18;101731.75;;;11.92;58.23
69624;BME280;56843;52.020;5.670;2023-05-16T02:03:49;101729.88;;;11.92;58.31
69624;BME280;56843;52.020;5.670;2023-05-16T02:05:20;101728.28;;;11.91;58.23
69624;BME280;56843;52.020;5.670;2023-05-16T02:06:51;101732.06;;;11.90;57.77
69624;BME280;56843;52.020;5.670;2023-05-16T02:08:23;101737.09;;;11.92;58.04
69624;BME280;56843;52.020;5.670;2023-05-16T02:09:53;101732.06;;;11.90;57.69
69624;BME280;56843;52.020;5.670;2023-05-16T02:11:24;101733.63;;;11.91;58.18
69624;BME280;56843;52.020;5.670;2023-05-16T02:12:55;101732.34;;;11.89;57.91
69624;BME280;56843;52.020;5.670;2023-05-16T02:14:26;101730.78;;;11.88;58.01
69624;BME280;56843;52.020;5.670;2023-05-16T02:15:57;101736.31;;;11.91;57.87
69624;BME280;56843;52.020;5.670;2023-05-16T02:17:27;101732.53;;;11.92;57.80
69624;BME280;56843;52.020;5.670;2023-05-16T02:18:58;101741.66;;;11.91;58.02
69624;BME280;56843;52.020;5.670;2023-05-16T02:20:29;101738.97;;;11.91;57.88
69624;BME280;56843;52.020;5.670;2023-05-16T02:21:59;101736.31;;;11.91;57.91
69624;BME280;56843;52.020;5.670;2023-05-16T02:23:30;101741.66;;;11.91;57.68
69624;BME280;56843;52.020;5.670;2023-05-16T02:25:01;101744.06;;;11.93;57.82
69624;BME280;56843;52.020;5.670;2023-05-16T02:26:32;101741.66;;;11.91;57.69
69624;BME280;56843;52.020;5.670;2023-05-16T02:28:02;101752.84;;;11.93;57.76
69624;BME280;56843;52.020;5.670;2023-05-16T02:29:33;101745.94;;;11.92;57.82
69624;BME280;56843;52.020;5.670;2023-05-16T02:31:04;101745.44;;;11.90;57.75
69624;BME280;56843;52.020;5.670;2023-05-16T02:32:34;101748.59;;;11.92;57.82
69624;BME280;56843;52.020;5.670;2023-05-16T02:34:05;101747.50;;;11.93;58.09
69624;BME280;56843;52.020;5.670;2023-05-16T02:35:36;101754.75;;;11.93;57.95
69624;BME280;56843;52.020;5.670;2023-05-16T02:37:06;101748.59;;;11.92;58.05
69624;BME280;56843;52.020;5.670;2023-05-16T02:38:37;101759.31;;;11.92;57.80
69624;BME280;56843;52.020;5.670;2023-05-16T02:40:08;101753.97;;;11.92;57.91
69624;BME280;56843;52.020;5.670;2023-05-16T02:41:40;101753.47;;;11.90;57.72
69624;BME280;56843;52.020;5.670;2023-05-16T02:43:12;101754.28;;;11.91;57.80
69624;BME280;56843;52.020;5.670;2023-05-16T02:44:43;101752.38;;;11.91;57.84
69624;BME280;56843;52.020;5.670;2023-05-16T02:46:23;101758.53;;;11.92;57.95
69624;BME280;56843;52.020;5.670;2023-05-16T02:47:54;101764.19;;;11.90;57.87
69624;BME280;56843;52.020;5.670;2023-05-16T02:49:25;101752.69;;;11.90;57.95
69624;BME280;56843;52.020;5.670;2023-05-16T02:50:55;101758.84;;;11.90;57.92
69624;BME280;56843;52.020;5.670;2023-05-16T02:52:26;101756.16;;;11.90;58.29
69624;BME280;56843;52.020;5.670;2023-05-16T02:53:56;101754.56;;;11.89;57.96
69624;BME280;56843;52.020;5.670;2023-05-16T02:55:28;101762.59;;;11.89;57.95
69624;BME280;56843;52.020;5.670;2023-05-16T02:57:00;101766.38;;;11.88;58.04
69624;BME280;56843;52.020;5.670;2023-05-16T02:58:31;101767.94;;;11.89;58.22
69624;BME280;56843;52.020;5.670;2023-05-16T03:00:01;101766.88;;;11.90;58.05
69624;BME280;56843;52.020;5.670;2023-05-16T03:01:35;101768.44;;;11.91;58.07
69624;BME280;56843;52.020;5.670;2023-05-16T03:03:05;101765.75;;;11.91;57.97
69624;BME280;56843;52.020;5.670;2023-05-16T03:04:35;101772.69;;;11.92;58.31
69624;BME280;56843;52.020;5.670;2023-05-16T03:06:06;101768.91;;;11.93;57.90
69624;BME280;56843;52.020;5.670;2023-05-16T03:07:37;101774.78;;;11.95;57.64
69624;BME280;56843;52.020;5.670;2023-05-16T03:09:09;101767.03;;;11.94;57.88
69624;BME280;56843;52.020;5.670;2023-05-16T03:10:39;101779.63;;;11.93;57.69
69624;BME280;56843;52.020;5.670;2023-05-16T03:12:10;101776.66;;;11.95;57.54
69624;BME280;56843;52.020;5.670;2023-05-16T03:13:40;101774.56;;;11.92;57.70
69624;BME280;56843;52.020;5.670;2023-05-16T03:15:11;101776.16;;;11.93;57.51
69624;BME280;56843;52.020;5.670;2023-05-16T03:16:42;101773.50;;;11.93;57.49
69624;BME280;56843;52.020;5.670;2023-05-16T03:18:13;101778.06;;;11.92;58.08
69624;BME280;56843;52.020;5.670;2023-05-16T03:19:43;101778.38;;;11.91;57.42
69624;BME280;56843;52.020;5.670;2023-05-16T03:21:16;101782.13;;;11.90;57.98
69624;BME280;56843;52.020;5.670;2023-05-16T03:22:48;101773.78;;;11.91;57.80
69624;BME280;56843;52.020;5.670;2023-05-16T03:24:18;101775.19;;;11.89;57.62
69624;BME280;56843;52.020;5.670;2023-05-16T03:25:52;101778.97;;;11.88;57.61
69624;BME280;56843;52.020;5.670;2023-05-16T03:27:25;101778.19;;;11.87;57.76
69624;BME280;56843;52.020;5.670;2023-05-16T03:28:56;101777.69;;;11.85;57.46
69624;BME280;56843;52.020;5.670;2023-05-16T03:30:26;101783.38;;;11.84;57.71
69624;BME280;56843;52.020;5.670;2023-05-16T03:31:57;101780.22;;;11.82;57.57
69624;BME280;56843;52.020;5.670;2023-05-16T03:33:27;101782.69;;;11.78;57.59
69624;BME280;56843;52.020;5.670;2023-05-16T03:34:57;101784.28;;;11.79;58.03
69624;BME280;56843;52.020;5.670;2023-05-16T03:36:28;101782.22;;;11.76;57.97
69624;BME280;56843;52.020;5.670;2023-05-16T03:37:59;101783.31;;;11.75;57.82
69624;BME280;56843;52.020;5.670;2023-05-16T03:39:30;101787.06;;;11.74;57.72
69624;BME280;56843;52.020;5.670;2023-05-16T03:41:00;101787.38;;;11.72;57.69
69624;BME280;56843;52.020;5.670;2023-05-16T03:42:31;101790.34;;;11.71;58.14
69624;BME280;56843;52.020;5.670;2023-05-16T03:44:01;101787.19;;;11.69;57.85
69624;BME280;56843;52.020;5.670;2023-05-16T03:45:32;101796.63;;;11.66;58.20
69624;BME280;56843;52.020;5.670;2023-05-16T03:47:02;101791.09;;;11.63;57.90
69624;BME280;56843;52.020;5.670;2023-05-16T03:48:33;101790.63;;;11.61;57.93
69624;BME280;56843;52.020;5.670;2023-05-16T03:50:04;101795.16;;;11.60;58.21
69624;BME280;56843;52.020;5.670;2023-05-16T03:51:35;101795.50;;;11.59;58.11
69624;BME280;56843;52.020;5.670;2023-05-16T03:53:05;101790.44;;;11.57;58.33
69624;BME280;56843;52.020;5.670;2023-05-16T03:54:36;101795.00;;;11.57;58.47
69624;BME280;56843;52.020;5.670;2023-05-16T03:56:06;101795.28;;;11.55;58.24
69624;BME280;56843;52.020;5.670;2023-05-16T03:57:37;101800.34;;;11.57;58.36
69624;BME280;56843;52.020;5.670;2023-05-16T03:59:07;101806.28;;;11.54;58.22
69624;BME280;56843;52.020;5.670;2023-05-16T04:00:38;101806.28;;;11.54;58.57
69624;BME280;56843;52.020;5.670;2023-05-16T04:02:08;101805.47;;;11.53;58.35
69624;BME280;56843;52.020;5.670;2023-05-16T04:03:39;101801.53;;;11.51;58.36
69624;BME280;56843;52.020;5.670;2023-05-16T04:05:10;101810.34;;;11.51;58.54
69624;BME280;56843;52.020;5.670;2023-05-16T04:06:40;101811.44;;;11.50;58.30
69624;BME280;56843;52.020;5.670;2023-05-16T04:08:11;101813.63;;;11.48;58.57
69624;BME280;56843;52.020;5.670;2023-05-16T04:09:41;101819.00;;;11.48;58.43
69624;BME280;56843;52.020;5.670;2023-05-16T04:11:12;101816.91;;;11.45;58.59
69624;BME280;56843;52.020;5.670;2023-05-16T04:12:42;101812.34;;;11.46;58.45
69624;BME280;56843;52.020;5.670;2023-05-16T04:14:14;101817.22;;;11.44;58.32
69624;BME280;56843;52.020;5.670;2023-05-16T04:15:44;101814.84;;;11.42;58.54
69624;BME280;56843;52.020;5.670;2023-05-16T04:17:15;101821.78;;;11.43;58.65
69624;BME280;56843;52.020;5.670;2023-05-16T04:18:45;101819.91;;;11.44;58.44
69624;BME280;56843;52.020;5.670;2023-05-16T04:20:16;101824.75;;;11.42;58.67
69624;BME280;56843;52.020;5.670;2023-05-16T04:21:46;101816.25;;;11.40;58.74
69624;BME280;56843;52.020;5.670;2023-05-16T04:23:17;101819.69;;;11.40;58.49
69624;BME280;56843;52.020;5.670;2023-05-16T04:24:48;101819.22;;;11.38;58.89
69624;BME280;56843;52.020;5.670;2023-05-16T04:26:18;101830.72;;;11.39;58.78
69624;BME280;56843;52.020;5.670;2023-05-16T04:27:51;101817.66;;;11.37;58.68
69624;BME280;56843;52.020;5.670;2023-05-16T04:29:21;101822.69;;;11.39;58.85
69624;BME280;56843;52.020;5.670;2023-05-16T04:30:52;101828.03;;;11.39;58.83
69624;BME280;56843;52.020;5.670;2023-05-16T04:32:23;101822.69;;;11.39;58.43
69624;BME280;56843;52.020;5.670;2023-05-16T04:33:54;101831.50;;;11.39;58.51
69624;BME280;56843;52.020;5.670;2023-05-16T04:35:26;101824.56;;;11.38;58.79
69624;BME280;56843;52.020;5.670;2023-05-16T04:36:57;101825.94;;;11.36;58.60
69624;BME280;56843;52.020;5.670;2023-05-16T04:38:28;101831.31;;;11.36;58.49
69624;BME280;56843;52.020;5.670;2023-05-16T04:39:58;101828.63;;;11.36;58.94
69624;BME280;56843;52.020;5.670;2023-05-16T04:41:29;101830.22;;;11.37;58.95
69624;BME280;56843;52.020;5.670;2023-05-16T04:42:59;101825.47;;;11.34;58.75
69624;BME280;56843;52.020;5.670;2023-05-16T04:44:30;101838.06;;;11.33;58.76
69624;BME280;56843;52.020;5.670;2023-05-16T04:46:00;101839.16;;;11.32;58.65
69624;BME280;56843;52.020;5.670;2023-05-16T04:47:31;101838.34;;;11.32;58.87
69624;BME280;56843;52.020;5.670;2023-05-16T04:49:02;101841.81;;;11.32;58.81
69624;BME280;56843;52.020;5.670;2023-05-16T04:50:32;101834.69;;;11.28;58.58
69624;BME280;56843;52.020;5.670;2023-05-16T04:52:04;101842.41;;;11.29;58.85
69624;BME280;56843;52.020;5.670;2023-05-16T04:53:35;101838.97;;;11.29;58.59
69624;BME280;56843;52.020;5.670;2023-05-16T04:55:06;101840.06;;;11.28;58.63
69624;BME280;56843;52.020;5.670;2023-05-16T04:56:36;101839.25;;;11.27;58.68
69624;BME280;56843;52.020;5.670;2023-05-16T04:58:07;101848.88;;;11.28;58.85
69624;BME280;56843;52.020;5.670;2023-05-16T04:59:37;101843.31;;;11.25;58.69
69624;BME280;56843;52.020;5.670;2023-05-16T05:01:08;101848.88;;;11.28;58.71
69624;BME280;56843;52.020;5.670;2023-05-16T05:02:38;101848.88;;;11.28;58.57
69624;BME280;56843;52.020;5.670;2023-05-16T05:04:09;101851.53;;;11.28;58.53
69624;BME280;56843;52.020;5.670;2023-05-16T05:05:39;101853.09;;;11.29;58.41
69624;BME280;56843;52.020;5.670;2023-05-16T05:07:10;101855.91;;;11.24;58.42
69624;BME280;56843;52.020;5.670;2023-05-16T05:08:40;101854.41;;;11.32;58.50
69624;BME280;56843;52.020;5.670;2023-05-16T05:10:11;101854.13;;;11.33;58.35
69624;BME280;56843;52.020;5.670;2023-05-16T05:11:42;101855.38;;;11.36;58.46
69624;BME280;56843;52.020;5.670;2023-05-16T05:13:12;101850.50;;;11.38;58.15
69624;BME280;56843;52.020;5.670;2023-05-16T05:14:42;101852.28;;;11.42;58.20
69624;BME280;56843;52.020;5.670;2023-05-16T05:16:13;101850.28;;;11.48;58.28
69624;BME280;56843;52.020;5.670;2023-05-16T05:17:43;101849.69;;;11.51;57.84
69624;BME280;56843;52.020;5.670;2023-05-16T05:19:14;101861.88;;;11.57;58.07
69624;BME280;56843;52.020;5.670;2023-05-16T05:20:45;101861.56;;;11.58;57.68
69624;BME280;56843;52.020;5.670;2023-05-16T05:22:15;101861.78;;;11.62;57.60
69624;BME280;56843;52.020;5.670;2023-05-16T05:23:46;101862.25;;;11.64;57.57
69624;BME280;56843;52.020;5.670;2023-05-16T05:25:18;101868.09;;;11.66;57.34
69624;BME280;56843;52.020;5.670;2023-05-16T05:26:49;101864.31;;;11.67;57.38
69624;BME280;56843;52.020;5.670;2023-05-16T05:28:19;101867.78;;;11.67;57.39
69624;BME280;56843;52.020;5.670;2023-05-16T05:29:50;101867.31;;;11.65;57.51
69624;BME280;56843;52.020;5.670;2023-05-16T05:31:20;101867.63;;;11.64;57.55
69624;BME280;56843;52.020;5.670;2023-05-16T05:32:51;101876.41;;;11.64;57.57
69624;BME280;56843;52.020;5.670;2023-05-16T05:34:22;101877.50;;;11.63;57.38
69624;BME280;56843;52.020;5.670;2023-05-16T05:35:53;101876.59;;;11.68;57.58
69624;BME280;56843;52.020;5.670;2023-05-16T05:37:25;101872.41;;;11.75;57.96
69624;BME280;56843;52.020;5.670;2023-05-16T05:38:56;101878.00;;;11.88;58.08
69624;BME280;56843;52.020;5.670;2023-05-16T05:40:26;101874.78;;;11.99;58.01
69624;BME280;56843;52.020;5.670;2023-05-16T05:41:57;101867.94;;;12.15;57.95
69624;BME280;56843;52.020;5.670;2023-05-16T05:43:27;101882.53;;;12.31;57.46
69624;BME280;56843;52.020;5.670;2023-05-16T05:44:58;101880.22;;;12.47;57.38
69624;BME280;56843;52.020;5.670;2023-05-16T05:46:28;101872.56;;;12.63;57.30
69624;BME280;56843;52.020;5.670;2023-05-16T05:47:59;101877.72;;;12.81;56.95
69624;BME280;56843;52.020;5.670;2023-05-16T05:49:30;101875.22;;;12.93;57.06
69624;BME280;56843;52.020;5.670;2023-05-16T05:51:01;101875.44;;;13.14;56.86
69624;BME280;56843;52.020;5.670;2023-05-16T05:52:31;101882.22;;;13.28;56.74
69624;BME280;56843;52.020;5.670;2023-05-16T05:54:02;101876.25;;;13.40;56.50
69624;BME280;56843;52.020;5.670;2023-05-16T05:55:33;101888.88;;;13.57;56.36
69624;BME280;56843;52.020;5.670;2023-05-16T05:57:03;101878.28;;;13.69;56.11
69624;BME280;56843;52.020;5.670;2023-05-16T05:58:34;101890.75;;;13.82;56.07
69624;BME280;56843;52.020;5.670;2023-05-16T06:00:05;101878.78;;;13.96;55.83
69624;BME280;56843;52.020;5.670;2023-05-16T06:01:38;101875.75;;;14.07;55.80
69624;BME280;56843;52.020;5.670;2023-05-16T06:03:08;101891.03;;;14.23;55.58
69624;BME280;56843;52.020;5.670;2023-05-16T06:04:39;101882.00;;;14.36;55.47
69624;BME280;56843;52.020;5.670;2023-05-16T06:06:11;101883.38;;;14.51;55.59
69624;BME280;56843;52.020;5.670;2023-05-16T06:07:44;101886.13;;;14.63;55.31
69624;BME280;56843;52.020;5.670;2023-05-16T06:09:14;101886.25;;;14.75;55.00
69624;BME280;56843;52.020;5.670;2023-05-16T06:10:45;101886.38;;;14.87;54.98
69624;BME280;56843;52.020;5.670;2023-05-16T06:12:15;101877.56;;;14.99;54.80
69624;BME280;56843;52.020;5.670;2023-05-16T06:13:46;101881.19;;;15.11;54.62
69624;BME280;56843;52.020;5.670;2023-05-16T06:15:17;101885.84;;;15.23;54.71
69624;BME280;56843;52.020;5.670;2023-05-16T06:16:47;101883.56;;;15.33;54.54
69624;BME280;56843;52.020;5.670;2023-05-16T06:18:18;101882.06;;;15.44;54.29
69624;BME280;56843;52.020;5.670;2023-05-16T06:19:48;101892.06;;;15.56;54.19
69624;BME280;56843;52.020;5.670;2023-05-16T06:21:19;101895.19;;;15.67;54.04
69624;BME280;56843;52.020;5.670;2023-05-16T06:22:49;101890.16;;;15.77;53.99
69624;BME280;56843;52.020;5.670;2023-05-16T06:24:20;101892.88;;;15.89;53.78
69624;BME280;56843;52.020;5.670;2023-05-16T06:25:50;101886.31;;;15.99;53.51
69624;BME280;56843;52.020;5.670;2023-05-16T06:27:21;101889.41;;;16.09;53.47
69624;BME280;56843;52.020;5.670;2023-05-16T06:28:52;101894.84;;;16.22;53.31
69624;BME280;56843;52.020;5.670;2023-05-16T06:30:22;101897.09;;;16.32;53.18
69624;BME280;56843;52.020;5.670;2023-05-16T06:31:52;101895.53;;;16.43;53.07
69624;BME280;56843;52.020;5.670;2023-05-16T06:33:23;101900.50;;;16.53;53.07
69624;BME280;56843;52.020;5.670;2023-05-16T06:34:53;101889.59;;;16.61;52.74
69624;BME280;56843;52.020;5.670;2023-05-16T06:36:24;101897.25;;;16.71;52.28
69624;BME280;56843;52.020;5.670;2023-05-16T06:37:54;101902.97;;;16.82;52.21
69624;BME280;56843;52.020;5.670;2023-05-16T06:39:25;101906.03;;;16.92;51.99
69624;BME280;56843;52.020;5.670;2023-05-16T06:40:55;101898.63;;;17.02;51.83
69624;BME280;56843;52.020;5.670;2023-05-16T06:42:26;101904.22;;;17.09;51.50
69624;BME280;56843;52.020;5.670;2023-05-16T06:43:56;101910.72;;;17.20;51.38
69624;BME280;56843;52.020;5.670;2023-05-16T06:45:27;101906.78;;;17.29;51.19
69624;BME280;56843;52.020;5.670;2023-05-16T06:46:57;101900.44;;;17.37;51.07
69624;BME280;56843;52.020;5.670;2023-05-16T06:48:28;101898.75;;;17.45;50.71
69624;BME280;56843;52.020;5.670;2023-05-16T06:49:59;101905.91;;;17.53;50.62
69624;BME280;56843;52.020;5.670;2023-05-16T06:51:30;101907.72;;;17.61;50.46
69624;BME280;56843;52.020;5.670;2023-05-16T06:53:01;101899.03;;;17.68;50.00
69624;BME280;56843;52.020;5.670;2023-05-16T06:54:31;101904.72;;;17.78;50.02
69624;BME280;56843;52.020;5.670;2023-05-16T06:56:02;101912.34;;;17.88;49.58
69624;BME280;56843;52.020;5.670;2023-05-16T06:57:32;101911.88;;;17.98;49.43
69624;BME280;56843;52.020;5.670;2023-05-16T06:59:02;101914.84;;;18.09;49.51
69624;BME280;56843;52.020;5.670;2023-05-16T07:00:33;101909.28;;;18.17;49.02
69624;BME280;56843;52.020;5.670;2023-05-16T07:02:04;101915.75;;;18.28;48.85
69624;BME280;56843;52.020;5.670;2023-05-16T07:03:34;101905.97;;;18.40;48.60
69624;BME280;56843;52.020;5.670;2023-05-16T07:05:06;101908.19;;;18.50;48.34
69624;BME280;56843;52.020;5.670;2023-05-16T07:06:36;101915.75;;;18.60;48.43
69624;BME280;56843;52.020;5.670;2023-05-16T07:08:10;101910.59;;;18.70;48.06
69624;BME280;56843;52.020;5.670;2023-05-16T07:09:41;101917.09;;;18.81;47.91
69624;BME280;56843;52.020;5.670;2023-05-16T07:11:12;101913.44;;;18.89;47.43
69624;BME280;56843;52.020;5.670;2023-05-16T07:12:43;101916.81;;;19.02;47.52
69624;BME280;56843;52.020;5.670;2023-05-16T07:14:13;101914.00;;;19.14;47.17
69624;BME280;56843;52.020;5.670;2023-05-16T07:15:43;101916.13;;;19.24;46.64
69624;BME280;56843;52.020;5.670;2023-05-16T07:17:14;101911.31;;;19.33;46.75
69624;BME280;56843;52.020;5.670;2023-05-16T07:18:45;101916.50;;;19.42;46.57
69624;BME280;56843;52.020;5.670;2023-05-16T07:20:15;101919.44;;;19.52;46.35
69624;BME280;56843;52.020;5.670;2023-05-16T07:21:46;101916.22;;;19.62;46.07
69624;BME280;56843;52.020;5.670;2023-05-16T07:23:16;101921.84;;;19.73;45.55
69624;BME280;56843;52.020;5.670;2023-05-16T07:24:47;101917.00;;;19.82;45.79
69624;BME280;56843;52.020;5.670;2023-05-16T07:26:17;101918.19;;;19.85;45.40
69624;BME280;56843;52.020;5.670;2023-05-16T07:27:48;101920.50;;;19.83;45.31
69624;BME280;56843;52.020;5.670;2023-05-16T07:29:18;101929.28;;;19.76;45.23
69624;BME280;56843;52.020;5.670;2023-05-16T07:30:49;101927.19;;;19.69;45.58
69624;BME280;56843;52.020;5.670;2023-05-16T07:32:20;101943.38;;;19.66;45.52
69624;BME280;56843;52.020;5.670;2023-05-16T07:33:50;101937.53;;;19.64;45.56
69624;BME280;56843;52.020;5.670;2023-05-16T07:35:21;101931.75;;;19.65;45.15
69624;BME280;56843;52.020;5.670;2023-05-16T07:36:51;101936.09;;;19.70;45.24
69624;BME280;56843;52.020;5.670;2023-05-16T07:38:22;101935.53;;;19.80;44.85
69624;BME280;56843;52.020;5.670;2023-05-16T07:39:52;101934.63;;;19.92;44.63
69624;BME280;56843;52.020;5.670;2023-05-16T07:41:22;101936.03;;;20.05;44.27
69624;BME280;56843;52.020;5.670;2023-05-16T07:42:54;101931.63;;;20.19;44.33
69624;BME280;56843;52.020;5.670;2023-05-16T07:44:25;101946.25;;;20.34;43.60
69624;BME280;56843;52.020;5.670;2023-05-16T07:45:55;101930.94;;;20.45;43.88
69624;BME280;56843;52.020;5.670;2023-05-16T07:47:25;101924.22;;;20.58;43.19
69624;BME280;56843;52.020;5.670;2023-05-16T07:48:56;101939.16;;;20.71;42.91
69624;BME280;56843;52.020;5.670;2023-05-16T07:50:27;101938.53;;;20.81;42.52
69624;BME280;56843;52.020;5.670;2023-05-16T07:51:57;101930.44;;;20.85;42.66
69624;BME280;56843;52.020;5.670;2023-05-16T07:53:28;101935.81;;;20.81;42.53
69624;BME280;56843;52.020;5.670;2023-05-16T07:54:58;101938.91;;;20.80;42.64
69624;BME280;56843;52.020;5.670;2023-05-16T07:56:29;101937.63;;;20.74;42.60
69624;BME280;56843;52.020;5.670;2023-05-16T07:57:59;101936.44;;;20.71;43.01
69624;BME280;56843;52.020;5.670;2023-05-16T07:59:30;101944.88;;;20.66;42.98
69624;BME280;56843;52.020;5.670;2023-05-16T08:01:00;101944.03;;;20.62;42.99
69624;BME280;56843;52.020;5.670;2023-05-16T08:02:31;101937.00;;;20.58;42.76
69624;BME280;56843;52.020;5.670;2023-05-16T08:04:01;101935.47;;;20.60;43.04
69624;BME280;56843;52.020;5.670;2023-05-16T08:05:32;101935.66;;;20.71;42.88
69624;BME280;56843;52.020;5.670;2023-05-16T08:07:02;101933.88;;;20.82;42.25
69624;BME280;56843;52.020;5.670;2023-05-16T08:08:33;101931.31;;;20.92;42.06